LEVC Airport Information

Runway Information
Runway 04 Length 5394 ft width 148 ft
Elevation 205 ft Threshold 0 ft Heading 38
Runway 22 Length 5394 ft Width 148 ft
Elevation 188 ft Threshold 0 ft Heading 218
Runway 12 Length 8858 ft width 148 ft
Elevation 225 ft Threshold 0 ft Heading 116
Runway 30 Length 8858 ft Width 148 ft
Elevation 172 ft Threshold 0 ft Heading 296
Airport Frequencies
Type APP Name APP Frequency 120.1 MHZ
Type ATIS Name ATIS Frequency 121.075 MHZ
Type GND Name GND Frequency 121.7 MHZ
Type TWR Name TWR Frequency 118.55 MHZ
Airport Navaids
Type NDB Name Valencia Frequency 400 KHZ
Type NDB Name Valencia Frequency 340 KHZ
Type NDB Name Sagunto Frequency 356 KHZ
Type VOR-DME Name Valencia Frequency 116100 KHZ
Airport Weather Information & NOTAM
ADDS - METARS form results

(1239 UTC 18 October 2018)
Data provider http://aviationweather.gov/metar/data/
 
METAR text: LEVC 181230Z 31010KT 8000 SHRA FEW018 FEW025TCU BKN030 16/16 Q1009 NOSIG
Conditions at: LEVC (VALENCIA (CIV/MI, ES) observed 1230 UTC 18 October 2018
Temperature: 16.0°C (61°F)
Dewpoint: 16.0°C (61°F) [RH = 100%]
Pressure (altimeter): 29.79 inches Hg (1009.0 mb)
Winds: from the NW (310 degrees) at 12 MPH (10 knots; 5.1 m/s)
Visibility: 5 miles ( 8 km)
Ceiling: 3000 feet AGL
Clouds: few clouds at 1800 feet AGL
few clouds at 2500 feet AGL
broken clouds at 3000 feet AGL
Weather: SHRA  (rain showers)

METAR text: LEVC 181204Z 30010KT 9000 -SHRA FEW018 FEW025TCU BKN030 16/16 Q1009 NOSIG
Conditions at: LEVC (VALENCIA (CIV/MI, ES) observed 1204 UTC 18 October 2018
Temperature: 16.0°C (61°F)
Dewpoint: 16.0°C (61°F) [RH = 100%]
Pressure (altimeter): 29.79 inches Hg (1009.0 mb)
Winds: from the WNW (300 degrees) at 12 MPH (10 knots; 5.1 m/s)
Visibility: 6 miles ( 9 km)
Ceiling: 3000 feet AGL
Clouds: few clouds at 1800 feet AGL
few clouds at 2500 feet AGL
broken clouds at 3000 feet AGL
Weather: -SHRA  (light rain showers)

METAR text: LEVC 181200Z 32009KT 290V350 8000 SHRA FEW018 FEW025TCU OVC030 16/16 Q1009 NOSIG
Conditions at: LEVC (VALENCIA (CIV/MI, ES) observed 1200 UTC 18 October 2018
Temperature: 16.0°C (61°F)
Dewpoint: 16.0°C (61°F) [RH = 100%]
Pressure (altimeter): 29.79 inches Hg (1009.0 mb)
Winds: from the NW (320 degrees) at 10 MPH (9 knots; 4.6 m/s)
Visibility: 5 miles ( 8 km)
Ceiling: 3000 feet AGL
Clouds: few clouds at 1800 feet AGL
few clouds at 2500 feet AGL
overcast cloud deck at 3000 feet AGL
Weather: SHRA  (rain showers)

METAR text: LEVC 181148Z 33008KT 5000 SHRA FEW018 SCT025TCU BKN028 16/16 Q1009 NOSIG
Conditions at: LEVC (VALENCIA (CIV/MI, ES) observed 1148 UTC 18 October 2018
Temperature: 16.0°C (61°F)
Dewpoint: 16.0°C (61°F) [RH = 100%]
Pressure (altimeter): 29.79 inches Hg (1009.0 mb)
Winds: from the NNW (330 degrees) at 9 MPH (8 knots; 4.1 m/s)
Visibility: 3 miles ( 5 km)
Ceiling: 2800 feet AGL
Clouds: few clouds at 1800 feet AGL
scattered clouds at 2500 feet AGL
broken clouds at 2800 feet AGL
Weather: SHRA  (rain showers)

Forecast for: LEVC (VALENCIA (CIV/MI, ES)
Text: TAF LEVC 181100Z 1812/1912 30005KT 9999 SCT025 TX20/1812Z TN15/1906Z
Forecast period: 1200 UTC 18 October 2018 to 1200 UTC 19 October 2018
Forecast type: FROM: standard forecast or significant change
Winds: from the WNW (300 degrees) at 6 MPH (5 knots; 2.6 m/s)
Visibility: 6 or more miles 10+ km)
Ceiling: at least 12,000 feet AGL
Clouds: scattered clouds at 2500 feet AGL
Weather: no significant weather forecast for this period
Text: TEMPO 1812/1817 26010G22KT
Forecast period: 1200 to 1700 UTC 18 October 2018
Forecast type: TEMPORARY: The following changes expected for less than half the time period
Winds: from the W (260 degrees) at 12 MPH (10 knots; 5.1 m/s)
gusting to 25 MPH (22 knots; 11.3 m/s)
Visibility: missing
Ceiling: unknown
Clouds: missing
Weather: no significant weather forecast for this period
Text: TEMPO 1812/1904 4000 SHRA BKN014 SCT020TCU
Forecast period: 1200 UTC 18 October 2018 to 0400 UTC 19 October 2018
Forecast type: TEMPORARY: The following changes expected for less than half the time period
Visibility: 2.49 miles (4.01 km)
Ceiling: 1400 feet AGL
Clouds: broken clouds at 1400 feet AGL
scattered clouds at 2000 feet AGL
Weather: SHRA  (rain showers)
Text: PROB40
Forecast period: 1200 UTC 18 October 2018 to 0400 UTC 19 October 2018
Forecast type: TEMPORARY: The following changes expected for less than half the time period
Visibility: 2.49 miles (4.01 km)
Ceiling: 2500 feet AGL
Clouds: scattered clouds at 2000 feet AGL
broken clouds at 2500 feet AGL
Weather: TSRA  (rain associated with thunderstorm(s))